Time;durP1;ratioP1;P1;durP2;ratioP2;P2;SDS_P1;SDS_P2;PMS_P1;PMS_P2;Temp;Humidity;BMP_temperature;BMP_pressure;BME280_temperature;BME280_humidity;BME280_pressure;Samples;Min_cycle;Max_cycle;Signal;HPM_P1;HPM_P2
2022/06/07 00:02:38;;;;;;;2.03;1.30;;;;;;;18.10;100.00;100251.13;5587996;31;34276;-72
2022/06/07 00:05:43;;;;;;;1.55;1.15;;;;;;;18.01;100.00;100249.75;5587598;31;34870;-72
2022/06/07 00:08:46;;;;;;;1.80;1.50;;;;;;;17.94;100.00;100247.13;5588036;31;34616;-72
2022/06/07 00:11:49;;;;;;;2.30;1.37;;;;;;;17.93;100.00;100250.84;5588025;31;34660;-72
2022/06/07 00:14:52;;;;;;;2.97;1.40;;;;;;;17.86;100.00;100243.91;5587003;31;33253;-72
2022/06/07 00:17:55;;;;;;;1.27;1.17;;;;;;;17.88;100.00;100247.16;5587786;31;34886;-72
2022/06/07 00:20:59;;;;;;;1.45;1.12;;;;;;;17.93;100.00;100244.66;5587762;31;34839;-73
2022/06/07 00:24:03;;;;;;;1.55;1.27;;;;;;;18.08;100.00;100243.28;5587056;31;34643;-72
2022/06/07 00:27:06;;;;;;;4.72;1.40;;;;;;;18.08;100.00;100247.81;5586813;31;34293;-72
2022/06/07 00:30:11;;;;;;;2.45;1.50;;;;;;;18.02;100.00;100246.84;5587624;31;34935;-72
2022/06/07 00:33:14;;;;;;;1.80;1.40;;;;;;;17.98;100.00;100239.44;5587381;31;34155;-72
2022/06/07 00:36:17;;;;;;;1.60;1.50;;;;;;;18.35;100.00;100238.47;5588503;31;34232;-72
2022/06/07 00:39:20;;;;;;;2.35;1.62;;;;;;;18.03;100.00;100235.06;5590452;31;35451;-72
2022/06/07 00:42:23;;;;;;;2.03;1.73;;;;;;;17.91;100.00;100238.69;5576984;31;34256;-72
2022/06/07 00:45:26;;;;;;;1.40;1.20;;;;;;;17.85;100.00;100243.06;5590423;31;34868;-72
2022/06/07 00:48:29;;;;;;;2.17;1.40;;;;;;;17.88;100.00;100231.06;5590327;31;35528;-72
2022/06/07 00:51:31;;;;;;;1.70;1.58;;;;;;;17.92;100.00;100233.09;5590307;31;34572;-72
2022/06/07 00:54:34;;;;;;;2.55;1.60;;;;;;;17.80;100.00;100234.84;5590457;31;34230;-72
2022/06/07 00:57:38;;;;;;;2.58;1.33;;;;;;;17.71;100.00;100233.47;5589547;31;34797;-72
2022/06/07 01:00:41;;;;;;;3.37;1.60;;;;;;;17.70;100.00;100235.34;5590619;31;34891;-72
2022/06/07 01:03:44;;;;;;;5.47;1.62;;;;;;;17.69;100.00;100236.38;5589424;31;34240;-72
2022/06/07 01:13:35;;;;;;;1.98;1.45;;;;;;;17.49;100.00;100230.28;5590192;31;34296;-72
2022/06/07 01:16:38;;;;;;;1.55;1.45;;;;;;;17.34;100.00;100225.22;5590176;31;35021;-72
2022/06/07 01:19:41;;;;;;;2.15;1.40;;;;;;;17.25;100.00;100221.13;5590171;31;34966;-72
2022/06/07 01:22:44;;;;;;;2.30;1.80;;;;;;;17.18;100.00;100217.69;5590026;31;34230;-72
2022/06/07 01:26:00;;;;;;;1.98;1.40;;;;;;;17.23;100.00;100209.00;5590467;31;34924;-72
2022/06/07 01:29:04;;;;;;;1.92;1.62;;;;;;;17.17;100.00;100208.00;5590006;31;34239;-72
2022/06/07 01:32:09;;;;;;;5.70;2.10;;;;;;;17.08;100.00;100203.94;5589358;31;34250;-73
2022/06/07 01:35:11;;;;;;;2.00;1.80;;;;;;;17.06;100.00;100207.84;5590089;31;34913;-72
2022/06/07 01:38:17;;;;;;;1.90;1.60;;;;;;;17.03;100.00;100227.03;5590029;31;34392;-72
2022/06/07 01:44:43;;;;;;;3.55;2.12;;;;;;;17.01;100.00;100210.34;5590294;31;34194;-73
2022/06/07 01:47:46;;;;;;;3.50;1.90;;;;;;;16.92;100.00;100210.59;5588726;31;34129;-72
2022/06/07 01:50:51;;;;;;;3.22;2.03;;;;;;;16.90;100.00;100207.28;5590199;31;34343;-72
2022/06/07 01:53:54;;;;;;;3.97;1.98;;;;;;;16.82;100.00;100198.69;5589846;31;34280;-72
2022/06/07 01:56:57;;;;;;;2.12;1.52;;;;;;;16.79;100.00;100204.47;5589786;31;34267;-72
2022/06/07 02:00:00;;;;;;;4.18;1.73;;;;;;;16.72;100.00;100198.31;5590166;31;34969;-72
2022/06/07 02:03:04;;;;;;;2.20;1.80;;;;;;;16.68;100.00;100203.28;5589750;31;34171;-73
2022/06/07 02:06:10;;;;;;;1.90;1.70;;;;;;;16.66;100.00;100204.50;5590055;31;35024;-73
2022/06/07 02:09:13;;;;;;;2.65;2.20;;;;;;;16.67;100.00;100198.12;5589684;31;34235;-73
2022/06/07 02:12:16;;;;;;;4.47;1.90;;;;;;;16.67;100.00;100188.22;5589964;31;34313;-73
2022/06/07 02:15:18;;;;;;;2.78;1.90;;;;;;;16.63;100.00;100191.53;5590005;31;34280;-73
2022/06/07 02:18:28;;;;;;;3.45;1.92;;;;;;;16.54;100.00;100185.56;5589624;31;34300;-73
2022/06/07 02:21:32;;;;;;;6.90;2.75;;;;;;;16.59;100.00;100185.78;5589975;31;34813;-73
2022/06/07 02:24:35;;;;;;;2.05;1.80;;;;;;;16.52;100.00;100180.41;5589469;31;34312;-72
2022/06/07 02:27:38;;;;;;;2.58;1.80;;;;;;;16.52;100.00;100180.41;5588823;31;34782;-73
2022/06/07 02:30:42;;;;;;;2.58;1.90;;;;;;;16.50;100.00;100177.16;5589828;31;34395;-73
2022/06/07 02:33:45;;;;;;;3.92;1.80;;;;;;;16.46;100.00;100175.91;5588587;31;34187;-73
2022/06/07 02:36:54;;;;;;;4.70;1.92;;;;;;;16.43;100.00;100168.28;5589346;31;34939;-73
2022/06/07 02:39:58;;;;;;;2.87;1.90;;;;;;;16.42;100.00;100169.31;5588785;31;33507;-72
2022/06/07 02:43:02;;;;;;;2.62;1.77;;;;;;;16.37;100.00;100171.81;5589425;31;34097;-73
2022/06/07 02:46:05;;;;;;;3.58;1.90;;;;;;;16.35;100.00;100171.22;5589703;31;34711;-72
2022/06/07 02:49:09;;;;;;;3.95;2.00;;;;;;;16.33;100.00;100177.78;5589222;31;34896;-73
2022/06/07 02:52:12;;;;;;;2.67;2.00;;;;;;;16.31;100.00;100179.87;5589312;31;34920;-73
2022/06/07 02:55:16;;;;;;;3.67;2.00;;;;;;;16.27;100.00;100182.13;5589395;31;34536;-73
2022/06/07 02:58:19;;;;;;;2.78;1.70;;;;;;;16.26;100.00;100180.50;5588998;31;34277;-73
2022/06/07 03:01:22;;;;;;;1.80;1.52;;;;;;;16.23;100.00;100180.09;5589011;31;34860;-74
2022/06/07 03:04:25;;;;;;;3.03;1.70;;;;;;;16.18;100.00;100183.37;5588796;31;34866;-73
2022/06/07 03:07:28;;;;;;;2.87;1.80;;;;;;;16.19;100.00;100177.00;5589222;31;34481;-73
2022/06/07 03:10:31;;;;;;;2.03;1.83;;;;;;;16.21;100.00;100180.31;5589165;31;34196;-73
2022/06/07 03:13:36;;;;;;;2.78;2.00;;;;;;;16.23;100.00;100183.59;5589039;31;34276;-73
2022/06/07 03:16:39;;;;;;;3.65;2.33;;;;;;;16.25;100.00;100175.34;5587928;31;34612;-73
2022/06/07 03:19:42;;;;;;;5.55;2.40;;;;;;;16.29;100.00;100179.25;5588910;31;34165;-73
2022/06/07 03:22:45;;;;;;;2.90;2.03;;;;;;;16.33;100.00;100177.78;5588788;31;34512;-73
2022/06/07 03:25:48;;;;;;;3.17;2.03;;;;;;;16.38;100.00;100178.81;5588717;31;34878;-73
2022/06/07 03:28:53;;;;;;;2.58;2.37;;;;;;;16.43;100.00;100175.50;5589234;31;34790;-73
2022/06/07 03:31:56;;;;;;;4.47;2.53;;;;;;;16.48;100.00;100175.69;5588250;31;34882;-72
2022/06/07 03:35:00;;;;;;;4.55;2.83;;;;;;;16.51;100.00;100189.47;5588849;31;34155;-73
2022/06/07 03:38:04;;;;;;;3.95;2.60;;;;;;;16.62;100.00;100182.69;5587955;31;34416;-73
2022/06/07 03:41:08;;;;;;;4.28;2.40;;;;;;;16.77;100.00;100180.56;5588921;31;34954;-73
2022/06/07 03:44:12;;;;;;;2.55;2.15;;;;;;;16.81;100.00;100183.63;5587647;31;32989;-73
2022/06/07 03:47:16;;;;;;;3.78;2.40;;;;;;;16.89;100.00;100181.53;5587886;31;33522;-73
2022/06/07 03:50:20;;;;;;;2.70;2.05;;;;;;;17.01;100.00;100178.19;5588291;31;34221;-74
2022/06/07 03:53:24;;;;;;;2.83;2.20;;;;;;;17.23;100.00;100180.31;5587628;31;34241;-73
2022/06/07 03:56:27;;;;;;;3.95;2.20;;;;;;;17.39;100.00;100177.13;5588518;31;34381;-74
2022/06/07 03:59:31;;;;;;;2.67;1.85;;;;;;;17.57;100.00;100175.56;5588528;31;35563;-74
2022/06/07 04:02:35;;;;;;;2.12;1.77;;;;;;;17.62;100.00;100183.81;5587074;31;33393;-73
2022/06/07 04:05:44;;;;;;;2.67;2.15;;;;;;;17.66;100.00;100180.47;5588373;31;35515;-73
2022/06/07 04:08:48;;;;;;;1.95;1.75;;;;;;;17.76;100.00;100179.97;5588019;31;34246;-74
2022/06/07 04:11:51;;;;;;;5.32;2.12;;;;;;;17.80;100.00;100171.28;5589696;31;34615;-73
2022/06/07 04:14:54;;;;;;;3.20;1.98;;;;;;;17.92;100.00;100175.91;5590641;31;34702;-74
2022/06/07 04:17:57;;;;;;;3.05;1.83;;;;;;;17.96;100.00;100164.50;5590623;31;34915;-74
2022/06/07 04:21:01;;;;;;;2.58;1.87;;;;;;;18.09;100.00;100164.41;5590623;31;34284;-74
2022/06/07 04:24:05;;;;;;;3.47;2.05;;;;;;;18.21;100.00;100156.41;5590872;31;34751;-74
2022/06/07 04:27:08;;;;;;;2.12;1.80;;;;;;;18.27;100.00;100158.22;5590446;31;34181;-74
2022/06/07 04:30:13;;;;;;;2.08;1.50;;;;;;;18.30;100.00;100155.06;5590583;31;34305;-74
2022/06/07 04:33:17;;;;;;;3.90;1.70;;;;;;;18.37;100.00;100152.31;5590320;31;34355;-74
2022/06/07 04:36:23;;;;;;;2.15;1.70;;;;;;;18.59;100.00;100153.53;5590703;31;32712;-74
2022/06/07 04:39:29;;;;;;;1.58;1.20;;;;;;;18.69;100.00;100155.72;5590327;31;34710;-74
2022/06/07 04:42:32;;;;;;;5.65;1.48;;;;;;;18.77;100.00;100150.00;5590807;31;34478;-74
2022/06/07 04:45:37;;;;;;;3.50;1.70;;;;;;;18.96;98.35;100143.56;5589444;31;34928;-75
2022/06/07 04:48:43;;;;;;;2.83;1.52;;;;;;;19.03;97.54;100146.94;5590438;31;34236;-74
2022/06/07 04:51:46;;;;;;;14.10;2.10;;;;;;;19.03;98.02;100147.78;5590807;31;34216;-74
2022/06/07 04:54:52;;;;;;;1.98;1.30;;;;;;;19.15;97.69;100155.06;5589581;31;34953;-74
2022/06/07 04:57:55;;;;;;;2.25;1.70;;;;;;;19.25;97.41;100150.78;5590293;31;35547;-75
2022/06/07 05:00:59;;;;;;;2.00;1.40;;;;;;;19.43;94.77;100160.62;5590448;31;34224;-73
2022/06/07 05:04:02;;;;;;;2.85;1.50;;;;;;;19.50;94.32;100148.78;5590261;31;34970;-73
2022/06/07 05:07:06;;;;;;;3.20;1.30;;;;;;;19.59;93.78;100151.94;5590134;31;34277;-73
2022/06/07 05:10:13;;;;;;;2.87;1.67;;;;;;;19.71;93.11;100157.31;5589139;31;34896;-73
2022/06/07 05:13:16;;;;;;;3.28;1.40;;;;;;;19.85;91.02;100156.03;5589964;31;34312;-73
2022/06/07 05:16:20;;;;;;;2.40;1.60;;;;;;;19.90;91.22;100161.53;5589418;31;34284;-73
2022/06/07 05:19:23;;;;;;;1.58;1.10;;;;;;;20.02;91.05;100154.31;5589464;31;32862;-74
2022/06/07 05:22:32;;;;;;;1.45;1.23;;;;;;;20.23;89.23;100167.19;5589212;31;33573;-73
2022/06/07 05:26:00;;;;;;;1.90;1.50;;;;;;;20.32;89.90;100165.78;5589732;31;34794;-73
2022/06/07 05:29:24;;;;;;;1.40;1.20;;;;;;;20.35;88.93;100170.69;5590000;31;34307;-73
2022/06/07 05:32:28;;;;;;;1.98;1.20;;;;;;;20.51;88.92;100171.03;5588502;31;34172;-73
2022/06/07 05:35:32;;;;;;;1.70;1.20;;;;;;;20.68;86.24;100174.59;5589911;31;34382;-73
2022/06/07 05:38:36;;;;;;;5.25;1.30;;;;;;;20.77;86.55;100168.59;5589690;31;34462;-73
2022/06/07 05:41:40;;;;;;;3.05;1.12;;;;;;;20.75;85.73;100173.44;5589674;31;34201;-73
2022/06/07 05:44:44;;;;;;;2.95;1.08;;;;;;;20.99;85.36;100174.16;5588579;31;32959;-73
2022/06/07 05:47:48;;;;;;;1.40;1.30;;;;;;;21.00;84.94;100169.59;5589395;31;34234;-73
2022/06/07 05:50:51;;;;;;;4.82;1.50;;;;;;;21.00;84.35;100173.09;5589455;31;34546;-72
2022/06/07 05:53:54;;;;;;;2.87;1.48;;;;;;;21.15;84.77;100169.91;5589961;31;34308;-73
2022/06/07 05:56:58;;;;;;;2.22;1.23;;;;;;;21.16;82.37;100171.53;5588670;31;35405;-73
2022/06/07 06:00:04;;;;;;;2.12;1.20;;;;;;;21.35;82.87;100164.06;5589010;31;33627;-73
2022/06/07 06:03:15;;;;;;;2.45;1.30;;;;;;;21.46;81.27;100161.28;5589525;31;34310;-74
2022/06/07 06:06:18;;;;;;;3.15;1.33;;;;;;;21.51;79.80;100164.06;5588112;31;32800;-73
2022/06/07 06:12:44;;;;;;;4.57;1.90;;;;;;;21.86;77.11;100166.53;5588616;31;33564;-73
2022/06/07 06:15:47;;;;;;;2.70;1.15;;;;;;;21.99;74.86;100166.19;5589336;31;34237;-73
2022/06/07 06:18:54;;;;;;;1.90;1.10;;;;;;;22.06;73.16;100166.88;5589307;31;34774;-73
2022/06/07 06:21:59;;;;;;;2.20;1.15;;;;;;;22.08;72.07;100175.53;5588542;31;35420;-73
2022/06/07 06:25:04;;;;;;;2.53;1.30;;;;;;;22.09;72.98;100171.75;5588633;31;33490;-73
2022/06/07 06:28:08;;;;;;;2.28;1.70;;;;;;;22.11;75.39;100171.53;5588979;31;34290;-73
2022/06/07 06:31:13;;;;;;;3.05;1.42;;;;;;;22.29;73.89;100165.00;5588531;31;32901;-73
2022/06/07 06:34:19;;;;;;;1.90;1.48;;;;;;;22.44;74.00;100166.03;5588567;31;34138;-72
2022/06/07 06:37:22;;;;;;;2.37;1.60;;;;;;;22.57;74.25;100164.84;5589381;31;34244;-74
2022/06/07 06:40:26;;;;;;;2.12;1.40;;;;;;;22.78;72.40;100155.94;5589261;31;34525;-73
2022/06/07 06:43:30;;;;;;;2.05;1.05;;;;;;;22.80;68.47;100166.50;5588163;31;33833;-73
2022/06/07 06:46:35;;;;;;;1.30;1.20;;;;;;;22.90;69.65;100161.19;5589141;31;34706;-73
2022/06/07 06:49:43;;;;;;;2.80;1.30;;;;;;;22.86;68.38;100158.19;5588961;31;34830;-73
2022/06/07 06:52:46;;;;;;;1.48;0.98;;;;;;;23.03;67.93;100155.41;5589108;31;34415;-73
2022/06/07 06:55:50;;;;;;;1.30;1.20;;;;;;;23.10;68.44;100156.00;5589369;31;34506;-74
2022/06/07 06:58:52;;;;;;;2.08;1.20;;;;;;;23.15;67.83;100155.22;5588902;31;34162;-72
2022/06/07 07:01:56;;;;;;;1.55;1.15;;;;;;;23.22;67.91;100147.75;5589509;31;34964;-73
2022/06/07 07:05:00;;;;;;;1.87;1.15;;;;;;;23.35;66.57;100145.44;5588655;31;34245;-73
2022/06/07 07:08:04;;;;;;;2.42;1.00;;;;;;;23.63;64.15;100149.75;5588899;31;34110;-72
2022/06/07 07:11:11;;;;;;;1.87;1.00;;;;;;;23.78;63.51;100149.88;5588632;31;34259;-73
2022/06/07 07:14:15;;;;;;;1.55;0.85;;;;;;;24.01;63.50;100156.78;5589048;31;34846;-73
2022/06/07 07:17:18;;;;;;;2.12;0.95;;;;;;;;;;5588581;31;34194;-73
2022/06/07 07:20:23;;;;;;;4.72;0.95;;;;;;;24.60;58.08;100153.88;5588912;31;35254;-72
2022/06/07 07:23:35;;;;;;;2.08;1.27;;;;;;;24.87;61.22;100142.91;5588834;31;34128;-73
2022/06/07 07:26:43;;;;;;;1.20;0.90;;;;;;;25.06;59.02;100149.47;5589098;31;34353;-73
2022/06/07 07:29:46;;;;;;;1.85;1.00;;;;;;;25.30;56.71;100141.63;5588611;31;34150;-73
2022/06/07 07:32:50;;;;;;;1.42;0.90;;;;;;;25.31;55.79;100146.78;5588268;31;34616;-73
2022/06/07 07:35:53;;;;;;;3.55;0.80;;;;;;;25.79;54.47;100137.31;5588495;31;35198;-74
2022/06/07 07:38:57;;;;;;;2.50;0.98;;;;;;;26.50;52.87;100139.03;5587343;31;33446;-73
2022/06/07 07:41:59;;;;;;;2.47;0.68;;;;;;;27.49;50.75;100138.78;5587078;31;32749;-74
2022/06/07 07:45:03;;;;;;;2.30;0.70;;;;;;;28.16;46.26;100137.06;5588142;31;33434;-72
2022/06/07 07:48:06;;;;;;;1.23;0.80;;;;;;;28.74;46.66;100136.94;5590671;31;34274;-73
2022/06/07 07:51:38;;;;;;;3.28;0.70;;;;;;;28.92;45.51;100126.03;5590640;31;34612;-72
2022/06/07 07:54:42;;;;;;;2.35;0.70;;;;;;;29.64;44.13;100129.28;5588675;31;34153;-72
2022/06/07 07:57:44;;;;;;;1.05;0.68;;;;;;;30.02;41.98;100131.91;5576408;31;33801;-71
2022/06/07 08:00:49;;;;;;;1.70;0.77;;;;;;;30.30;41.83;100130.84;5590899;31;33614;-71
2022/06/07 08:03:59;;;;;;;1.30;0.90;;;;;;;30.27;41.05;100130.59;5590045;31;34287;-73
2022/06/07 08:07:03;;;;;;;0.80;0.70;;;;;;;30.51;40.38;100132.06;5589818;31;35438;-72
2022/06/07 08:10:07;;;;;;;0.95;0.60;;;;;;;31.38;39.93;100118.03;5590698;31;34251;-72
2022/06/07 08:13:10;;;;;;;0.98;0.60;;;;;;;32.40;37.75;100120.84;5590043;31;34960;-73
2022/06/07 08:16:14;;;;;;;3.15;0.80;;;;;;;32.17;37.89;100115.44;5589691;31;34218;-72
2022/06/07 08:19:18;;;;;;;0.93;0.60;;;;;;;32.17;36.68;100114.63;5590734;31;34853;-71
2022/06/07 08:22:21;;;;;;;5.05;0.70;;;;;;;31.52;37.76;100109.72;5590872;31;34961;-72
2022/06/07 08:25:24;;;;;;;4.28;0.60;;;;;;;32.50;37.58;100104.87;5590402;31;34425;-72
2022/06/07 08:28:27;;;;;;;3.28;0.60;;;;;;;33.72;34.70;100115.59;5590490;31;34819;-72
2022/06/07 08:31:31;;;;;;;2.70;0.90;;;;;;;33.62;35.00;100105.72;5590181;31;34196;-73
2022/06/07 08:37:58;;;;;;;1.00;0.60;;;;;;;34.28;32.60;100108.94;5589006;31;33228;-73
2022/06/07 08:41:01;;;;;;;1.35;0.65;;;;;;;34.69;30.88;100102.72;5590395;31;34128;-73
2022/06/07 08:44:13;;;;;;;2.80;0.65;;;;;;;35.71;30.72;100094.69;5589827;31;34310;-71
2022/06/07 08:47:19;;;;;;;1.73;0.52;;;;;;;35.52;30.35;100093.56;5589891;31;34314;-70
2022/06/07 08:50:30;;;;;;;4.97;0.60;;;;;;;36.01;28.62;100089.78;5589922;31;34299;-70
2022/06/07 08:53:39;;;;;;;1.37;0.50;;;;;;;35.94;28.53;100089.53;5589841;31;34813;-71
2022/06/07 08:56:42;;;;;;;0.40;0.40;;;;;;;37.25;26.50;100092.81;5588533;31;32806;-72
2022/06/07 08:59:47;;;;;;;1.35;0.60;;;;;;;35.73;27.62;100089.62;5589851;31;34232;-68
2022/06/07 09:03:12;;;;;;;0.95;0.60;;;;;;;34.19;30.03;100097.16;5590073;31;34904;-72
2022/06/07 09:06:21;;;;;;;0.47;0.40;;;;;;;33.67;32.41;100082.78;5589771;31;34330;-71
2022/06/07 09:13:20;;;;;;;1.62;0.50;;;;;;;33.83;31.19;100078.34;5590021;31;34863;-71
2022/06/07 09:16:22;;;;;;;1.62;0.52;;;;;;;34.06;32.03;100081.66;5589763;31;34326;-72
2022/06/07 09:19:28;;;;;;;7.22;0.62;;;;;;;34.02;31.15;100075.19;5588937;31;33129;-72
2022/06/07 09:22:50;;;;;;;2.72;0.70;;;;;;;32.61;33.47;100069.69;5589478;31;34180;-72
2022/06/07 09:25:56;;;;;;;1.00;0.55;;;;;;;31.75;36.12;100064.75;5588796;31;34237;-72
2022/06/07 09:29:16;;;;;;;2.22;0.68;;;;;;;31.11;37.53;100063.34;5589578;31;34132;-72
2022/06/07 09:32:22;;;;;;;1.17;0.43;;;;;;;30.81;36.50;100053.91;5589814;31;34631;-72
2022/06/07 09:35:41;;;;;;;3.53;0.50;;;;;;;32.70;35.64;100060.34;5589737;31;34225;-73
2022/06/07 09:38:52;;;;;;;1.73;0.60;;;;;;;33.90;33.20;100056.63;5589327;31;34533;-70
2022/06/07 09:42:09;;;;;;;1.48;0.70;;;;;;;33.98;30.56;100055.78;5589986;31;34195;-70
2022/06/07 09:45:12;;;;;;;2.40;0.60;;;;;;;33.92;32.54;100043.34;5591427;31;34782;-72
2022/06/07 09:48:43;;;;;;;3.72;0.60;;;;;;;35.94;28.95;100042.59;5593999;31;34195;-72
2022/06/07 09:51:47;;;;;;;1.23;0.70;;;;;;;36.26;27.45;100034.56;5591225;31;34643;-72
2022/06/07 09:55:06;;;;;;;0.82;0.60;;;;;;;37.30;27.42;100038.03;5590482;31;34368;-71
2022/06/07 09:58:41;;;;;;;1.40;0.55;;;;;;;37.19;25.61;100033.37;5589502;31;33042;-73
2022/06/07 10:01:47;;;;;;;1.20;0.65;;;;;;;35.39;27.80;100036.75;5589157;31;35254;-71
2022/06/07 10:05:18;;;;;;;0.90;0.50;;;;;;;36.34;26.45;100026.13;5589478;31;35063;-70
2022/06/07 10:08:38;;;;;;;2.05;0.70;;;;;;;34.04;30.74;100028.84;5588512;31;34953;-71
2022/06/07 10:11:59;;;;;;;0.65;0.60;;;;;;;32.08;32.88;100024.00;5589768;31;34920;-71
2022/06/07 10:15:27;;;;;;;1.23;0.60;;;;;;;31.45;35.61;100021.62;5589549;31;34834;-71
2022/06/07 10:18:48;;;;;;;2.83;0.60;;;;;;;30.55;37.45;100011.78;5589485;31;34851;-71
2022/06/07 10:22:00;;;;;;;1.23;0.70;;;;;;;30.04;38.17;100003.84;5588693;31;34332;-72
2022/06/07 10:25:17;;;;;;;4.50;0.80;;;;;;;29.35;37.86;100011.16;5590027;31;34370;-71
2022/06/07 10:30:11;;;;;;;3.08;0.80;;;;;;;35.44;29.07;99998.69;5618100;31;188542;-71
2022/06/07 10:33:48;;;;;;;1.87;0.57;;;;;;;35.44;29.07;99998.69;5604530;31;34248;-71
2022/06/07 10:36:57;;;;;;;1.12;0.73;;;;;;;35.67;28.13;99999.94;5604199;31;34570;-72
2022/06/07 10:40:10;;;;;;;1.25;0.65;;;;;;;36.91;27.04;99997.41;5604575;31;33762;-72
2022/06/07 10:43:24;;;;;;;1.60;0.52;;;;;;;38.45;24.39;100001.72;5603467;31;32695;-71
2022/06/07 10:46:29;;;;;;;2.05;0.60;;;;;;;38.43;23.69;99992.16;5604158;31;33912;-68
2022/06/07 10:49:43;;;;;;;1.30;1.08;;;;;;;38.91;23.62;99991.63;5603599;31;33700;-71
2022/06/07 10:52:51;;;;;;;2.58;0.68;;;;;;;36.77;24.93;99983.19;5603247;31;33781;-69
2022/06/07 10:56:17;;;;;;;2.22;0.65;;;;;;;35.65;27.52;99965.50;5604046;31;34983;-70
2022/06/07 10:59:26;;;;;;;1.50;0.60;;;;;;;36.03;27.12;99976.19;5594874;31;34310;-70
2022/06/07 11:02:51;;;;;;;1.12;0.68;;;;;;;38.25;24.47;99970.37;5606177;31;34287;-71
2022/06/07 11:09:38;;;;;;;2.17;0.68;;;;;;;37.59;23.79;99962.09;5602517;31;34086;-69
2022/06/07 11:12:55;;;;;;;1.52;0.73;;;;;;;36.96;24.88;99955.69;5604010;31;33810;-72
2022/06/07 11:16:10;;;;;;;1.17;0.70;;;;;;;39.39;23.03;99947.72;5603904;31;34491;-71
2022/06/07 11:19:14;;;;;;;1.20;0.50;;;;;;;40.55;20.70;99947.81;5603608;31;34533;-70
2022/06/07 11:22:19;;;;;;;5.47;0.73;;;;;;;40.64;20.57;99943.59;5603904;31;33825;-69
2022/06/07 11:25:42;;;;;;;1.37;0.60;;;;;;;39.17;23.14;99938.16;5603677;31;33946;-71
2022/06/07 11:28:48;;;;;;;1.25;0.50;;;;;;;40.57;20.37;99937.91;5603322;31;33813;-71
2022/06/07 11:31:52;;;;;;;1.48;0.65;;;;;;;40.61;20.86;99938.81;5603503;31;33902;-70
2022/06/07 11:34:54;;;;;;;1.60;0.55;;;;;;;40.03;20.77;99935.62;5603364;31;33828;-71
2022/06/07 11:38:17;;;;;;;3.20;0.60;;;;;;;38.31;22.50;99932.09;5603212;31;33998;-72
2022/06/07 11:41:40;;;;;;;2.15;0.52;;;;;;;35.23;27.31;99916.06;5589614;31;33896;-71
2022/06/07 11:44:43;;;;;;;1.40;0.55;;;;;;;37.14;24.82;99915.47;5590506;31;33729;-71
2022/06/07 11:47:45;;;;;;;3.35;0.50;;;;;;;39.02;21.81;99912.16;5590282;31;35187;-72
2022/06/07 11:51:04;;;;;;;2.62;0.60;;;;;;;40.73;20.09;99913.50;5590396;31;33916;-71
2022/06/07 11:54:16;;;;;;;2.87;0.60;;;;;;;39.79;21.38;99903.53;5590465;31;33902;-71
2022/06/07 11:57:28;;;;;;;2.70;0.60;;;;;;;41.58;18.87;99897.59;5590452;31;34132;-69
2022/06/07 12:00:31;;;;;;;0.70;0.50;;;;;;;38.01;21.98;99906.12;5590412;31;33358;-71
2022/06/07 12:03:34;;;;;;;2.08;0.50;;;;;;;37.92;21.58;99894.44;5590390;31;33856;-72
2022/06/07 12:06:39;;;;;;;2.80;0.60;;;;;;;41.29;19.07;99889.38;5589730;31;32635;-71
2022/06/07 12:09:49;;;;;;;5.03;0.70;;;;;;;38.64;20.95;99876.97;5589342;31;35015;-69
2022/06/07 12:13:49;;;;;;;1.52;0.50;;;;;;;39.96;19.42;99877.97;5589999;31;33944;-71
2022/06/07 12:17:03;;;;;;;2.37;1.62;;;;;;;41.84;17.58;99882.59;5590284;31;34508;-70
2022/06/07 12:20:06;;;;;;;0.60;0.50;;;;;;;41.29;18.39;99881.03;5590086;31;34493;-72
2022/06/07 12:23:29;;;;;;;1.25;0.43;;;;;;;42.77;16.18;99876.22;5590215;31;34008;-72
2022/06/07 12:26:34;;;;;;;2.10;0.60;;;;;;;43.81;16.18;99866.63;5590052;31;34501;-69
2022/06/07 12:29:43;;;;;;;1.87;0.80;;;;;;;42.60;16.29;99868.62;5589739;31;34242;-72
2022/06/07 12:32:48;;;;;;;1.35;0.80;;;;;;;41.64;17.91;99864.56;5590003;31;33850;-71
2022/06/07 12:35:56;;;;;;;1.10;0.80;;;;;;;40.75;19.29;99858.28;5590328;31;35030;-71
2022/06/07 12:39:09;;;;;;;2.30;0.90;;;;;;;43.55;16.98;99851.13;5589086;31;34439;-71
2022/06/07 12:42:15;;;;;;;1.10;0.70;;;;;;;42.32;18.55;99865.72;5589059;31;34537;-70
2022/06/07 12:45:25;;;;;;;2.45;1.00;;;;;;;41.62;18.64;99861.41;5588806;31;32562;-71
2022/06/07 12:48:35;;;;;;;0.85;0.70;;;;;;;39.66;20.59;99854.91;5589533;31;33883;-70
2022/06/07 12:51:40;;;;;;;1.23;0.60;;;;;;;40.12;19.69;99850.00;5588458;31;34495;-70
2022/06/07 12:54:52;;;;;;;1.15;0.60;;;;;;;42.31;18.43;99855.78;5589662;31;34500;-71
2022/06/07 12:58:18;;;;;;;2.15;0.77;;;;;;;44.10;15.99;99853.34;5589015;31;35134;-70
2022/06/07 13:01:28;;;;;;;0.93;0.65;;;;;;;44.43;15.90;99847.22;5589741;31;35164;-71
2022/06/07 13:04:44;;;;;;;1.30;0.60;;;;;;;44.49;16.27;99837.16;5589846;31;33898;-70
2022/06/07 13:07:51;;;;;;;4.97;0.77;;;;;;;46.44;13.48;99845.62;5589626;31;33923;-70
2022/06/07 13:10:54;;;;;;;1.73;0.70;;;;;;;44.46;15.52;99834.37;5590162;31;33805;-69
2022/06/07 13:13:56;;;;;;;1.15;0.75;;;;;;;40.91;19.08;99827.41;5589724;31;33897;-68
2022/06/07 13:17:14;;;;;;;1.40;0.70;;;;;;;40.97;19.22;99827.84;5589613;31;33945;-72
2022/06/07 13:20:35;;;;;;;3.37;0.80;;;;;;;42.87;16.14;99832.78;5589644;31;35158;-70
2022/06/07 13:23:40;;;;;;;2.60;0.77;;;;;;;42.03;16.92;99820.22;5588858;31;33917;-70
2022/06/07 13:26:45;;;;;;;1.10;0.80;;;;;;;43.45;15.94;99821.19;5589147;31;33991;-71
2022/06/07 13:29:47;;;;;;;1.95;1.00;;;;;;;40.47;18.87;99818.25;5588464;31;34277;-70
2022/06/07 13:33:20;;;;;;;1.70;0.70;;;;;;;38.86;20.56;99813.56;5588959;31;33856;-70
2022/06/07 13:36:34;;;;;;;2.30;0.82;;;;;;;40.56;18.63;99813.97;5578687;31;35085;-70
2022/06/07 13:39:58;;;;;;;2.58;0.95;;;;;;;43.11;16.65;99808.88;5588336;31;33032;-70
2022/06/07 13:43:16;;;;;;;4.85;0.98;;;;;;;44.15;15.88;99806.16;5588000;31;33539;-73
2022/06/07 13:46:56;;;;;;;4.35;1.20;;;;;;;41.11;17.84;99808.50;5574927;31;33284;-71
2022/06/07 13:53:58;;;;;;;4.68;1.20;;;;;;;45.02;14.50;99808.03;5588530;31;34549;-69
2022/06/07 13:57:01;;;;;;;3.55;1.25;;;;;;;41.91;17.36;99801.06;5587405;31;33616;-70
2022/06/07 14:00:07;;;;;;;25.17;3.37;;;;;;;37.15;21.42;99797.34;5589066;31;34193;-70
2022/06/07 14:03:18;;;;;;;13.18;1.50;;;;;;;35.31;24.41;99793.78;5587543;31;34664;-71
2022/06/07 14:06:35;;;;;;;6.87;1.30;;;;;;;35.48;24.33;99791.94;5587957;31;33512;-70
2022/06/07 14:09:38;;;;;;;4.25;1.45;;;;;;;34.52;26.97;99791.50;5588636;31;34495;-70
2022/06/07 14:12:41;;;;;;;4.47;1.10;;;;;;;33.88;27.79;99791.94;5588388;31;34579;-70
2022/06/07 14:15:46;;;;;;;2.30;1.60;;;;;;;34.10;28.17;99774.25;5587398;31;32163;-71
2022/06/07 14:18:49;;;;;;;3.35;1.50;;;;;;;36.01;23.85;99785.25;5588354;31;33886;-70
2022/06/07 14:21:53;;;;;;;5.20;1.65;;;;;;;38.20;21.71;99773.94;5587241;31;33799;-69
2022/06/07 14:24:56;;;;;;;1.83;1.20;;;;;;;36.95;23.30;99782.63;5587899;31;34024;-71
2022/06/07 14:27:59;;;;;;;11.15;1.58;;;;;;;36.39;23.34;99777.25;5587833;31;33777;-71
2022/06/07 14:31:02;;;;;;;4.72;1.35;;;;;;;36.41;23.72;99774.91;5587089;31;33149;-69
2022/06/07 14:34:15;;;;;;;4.80;1.50;;;;;;;38.13;21.42;99771.06;5587975;31;33799;-70
2022/06/07 14:37:20;;;;;;;1.70;1.27;;;;;;;35.04;25.10;99769.66;5587748;31;33767;-70
2022/06/07 14:40:29;;;;;;;6.07;1.73;;;;;;;33.86;27.69;99761.19;5588025;31;33868;-70
2022/06/07 14:43:32;;;;;;;3.25;1.52;;;;;;;32.61;29.73;99757.37;5587841;31;35217;-69
2022/06/07 14:46:35;;;;;;;4.03;1.70;;;;;;;32.34;30.46;99746.78;5587760;31;34008;-70
2022/06/07 14:49:38;;;;;;;5.25;2.15;;;;;;;31.32;31.70;99741.00;5586833;31;35161;-71
2022/06/07 14:52:40;;;;;;;7.62;1.80;;;;;;;30.86;33.84;99746.19;5587494;31;33978;-69
2022/06/07 14:55:43;;;;;;;3.25;1.50;;;;;;;31.43;32.75;99756.00;5587711;31;33872;-70
2022/06/07 14:58:47;;;;;;;5.12;1.80;;;;;;;31.25;31.44;99753.56;5573880;31;32617;-70
2022/06/07 15:01:53;;;;;;;2.45;1.67;;;;;;;31.37;33.17;99735.34;5586931;31;33327;-70